createdAt,value
2023-01-04T00:01:03.916Z,36.10
2023-01-04T00:07:56.153Z,33.90
2023-01-04T00:11:25.205Z,33.30
2023-01-04T00:14:52.527Z,34.60
2023-01-04T00:18:19.766Z,35.70
2023-01-04T00:21:46.743Z,33.50
2023-01-04T00:25:13.612Z,33.50
2023-01-04T00:28:41.601Z,33.30
2023-01-04T00:32:08.666Z,33.60
2023-01-04T00:35:45.808Z,32.30
2023-01-04T00:39:16.938Z,30.70
2023-01-04T00:42:44.015Z,29.90
2023-01-04T00:46:11.681Z,30.70
2023-01-04T00:49:38.814Z,31.00
2023-01-04T00:53:05.970Z,32.00
2023-01-04T00:56:34.187Z,33.60
2023-01-04T01:00:01.187Z,32.50
2023-01-04T01:03:32.104Z,34.10
2023-01-04T01:07:01.880Z,33.40
2023-01-04T01:10:29.036Z,35.00
2023-01-04T01:13:56.280Z,38.20
2023-01-04T01:17:24.012Z,37.30
2023-01-04T01:20:51.028Z,39.80
2023-01-04T01:24:20.388Z,37.40
2023-01-04T01:27:47.284Z,41.20
2023-01-04T01:31:17.648Z,41.40
2023-01-04T01:34:47.349Z,38.50
2023-01-04T01:38:14.610Z,37.60
2023-01-04T01:41:41.963Z,40.40
2023-01-04T01:45:22.838Z,43.50
2023-01-04T01:48:51.094Z,46.30
2023-01-04T01:52:24.100Z,45.70
2023-01-04T01:55:52.792Z,48.20
2023-01-04T01:59:21.416Z,35.20
2023-01-04T02:02:57.097Z,54.60
2023-01-04T02:06:31.041Z,62.50
2023-01-04T02:09:59.702Z,61.60
2023-01-04T02:13:50.782Z,66.80
2023-01-04T02:17:23.736Z,59.70
2023-01-04T02:20:56.976Z,58.10
2023-01-04T02:24:44.964Z,60.00
2023-01-04T02:28:18.185Z,63.10
2023-01-04T02:31:51.868Z,66.50
2023-01-04T02:35:26.615Z,67.40
2023-01-04T02:39:06.878Z,64.40
2023-01-04T02:42:59.840Z,65.20
2023-01-04T02:46:32.545Z,64.10
2023-01-04T02:50:16.318Z,54.10
2023-01-04T02:53:44.044Z,62.00
2023-01-04T02:57:33.256Z,62.60
2023-01-04T03:01:25.903Z,59.20
2023-01-04T03:05:20.920Z,58.30
2023-01-04T03:08:57.357Z,51.30
2023-01-04T03:12:34.382Z,49.80
2023-01-04T03:16:07.954Z,45.20
2023-01-04T03:19:54.371Z,39.90
2023-01-04T03:23:44.587Z,40.30
2023-01-04T03:27:29.672Z,36.50
2023-01-04T03:31:21.798Z,33.50
2023-01-04T03:35:07.026Z,32.40
2023-01-04T03:38:58.680Z,34.10
2023-01-04T03:42:51.874Z,30.70
2023-01-04T03:46:43.372Z,33.70
2023-01-04T03:50:16.167Z,34.70
2023-01-04T03:53:49.016Z,30.30
2023-01-04T03:57:17.797Z,29.00
2023-01-04T04:00:49.667Z,25.60
2023-01-04T04:04:34.205Z,26.90
2023-01-04T04:08:19.088Z,26.40
2023-01-04T04:11:46.381Z,26.60
2023-01-04T04:15:14.056Z,24.60
2023-01-04T04:18:41.161Z,24.60
2023-01-04T04:22:08.169Z,25.00
2023-01-04T04:25:37.800Z,24.70
2023-01-04T04:32:33.735Z,22.00
2023-01-04T04:36:02.526Z,22.90
2023-01-04T04:39:29.595Z,22.40
2023-01-04T04:42:56.503Z,21.10
2023-01-04T04:46:23.651Z,21.50
2023-01-04T04:49:51.959Z,21.90
2023-01-04T04:53:19.258Z,20.60
2023-01-04T04:56:46.510Z,19.40
2023-01-04T05:00:17.938Z,19.70
2023-01-04T05:03:45.000Z,17.30
2023-01-04T05:07:12.787Z,18.40
2023-01-04T05:10:40.389Z,18.40
2023-01-04T05:14:08.778Z,19.00
2023-01-04T05:17:35.761Z,18.40
2023-01-04T05:21:03.357Z,17.70
2023-01-04T05:24:30.257Z,18.10
2023-01-04T05:27:59.734Z,20.30
2023-01-04T05:31:27.270Z,19.20
2023-01-04T05:34:54.232Z,20.80
2023-01-04T05:38:22.147Z,19.70
2023-01-04T05:42:06.790Z,21.30
2023-01-04T05:45:35.630Z,22.30
2023-01-04T05:49:02.660Z,21.90
2023-01-04T05:52:30.050Z,22.80
2023-01-04T05:55:58.853Z,21.60
2023-01-04T05:59:26.192Z,23.40
2023-01-04T06:02:57.287Z,19.80
2023-01-04T06:06:24.393Z,21.20
2023-01-04T06:09:54.180Z,19.70
2023-01-04T06:13:21.711Z,20.50
2023-01-04T06:16:50.759Z,21.70
2023-01-04T06:20:17.874Z,19.30
2023-01-04T06:23:44.860Z,19.40
2023-01-04T06:27:11.891Z,20.10
2023-01-04T06:30:38.912Z,17.70
2023-01-04T06:34:06.199Z,18.20
2023-01-04T06:37:33.324Z,21.00
2023-01-04T06:41:00.212Z,16.70
2023-01-04T06:44:27.090Z,17.40
2023-01-04T06:47:53.907Z,18.10
2023-01-04T06:51:20.841Z,15.90
2023-01-04T06:54:47.760Z,17.00
2023-01-04T06:58:14.583Z,17.60
2023-01-04T07:01:44.262Z,16.60
2023-01-04T07:08:37.945Z,17.80
2023-01-04T07:12:05.124Z,17.30
2023-01-04T07:15:38.656Z,18.30
2023-01-04T07:19:09.927Z,16.70
2023-01-04T07:22:36.855Z,18.60
2023-01-04T07:26:05.343Z,16.50
2023-01-04T07:29:35.164Z,18.10
2023-01-04T07:36:27.904Z,15.30
2023-01-04T07:39:54.906Z,15.90
2023-01-04T07:43:27.670Z,16.00
2023-01-04T07:46:56.567Z,15.40
2023-01-04T07:50:26.977Z,14.60
2023-01-04T07:53:54.108Z,14.40
2023-01-04T07:57:21.982Z,14.00
2023-01-04T08:00:49.053Z,13.00
2023-01-04T08:04:16.761Z,12.50
2023-01-04T08:07:43.960Z,13.00
2023-01-04T08:11:14.376Z,13.20
2023-01-04T08:14:41.446Z,12.90
2023-01-04T08:18:08.692Z,11.00
2023-01-04T08:21:39.961Z,11.50
2023-01-04T08:25:08.074Z,10.90
2023-01-04T08:28:36.581Z,10.60
2023-01-04T08:32:07.628Z,11.00
2023-01-04T08:35:34.772Z,11.70
2023-01-04T08:39:04.858Z,10.50
2023-01-04T08:42:32.259Z,10.20
2023-01-04T08:45:59.876Z,9.90
2023-01-04T08:49:28.195Z,9.30
2023-01-04T08:52:55.580Z,9.70
2023-01-04T08:56:22.616Z,8.80
2023-01-04T08:59:50.074Z,10.30
2023-01-04T09:03:17.075Z,9.20
2023-01-04T09:06:56.186Z,8.50
2023-01-04T09:10:23.349Z,10.20
2023-01-04T09:13:51.446Z,9.90
2023-01-04T09:17:18.355Z,9.40
2023-01-04T09:20:45.662Z,8.30
2023-01-04T09:24:14.106Z,8.80
2023-01-04T09:27:41.418Z,9.50
2023-01-04T09:31:16.235Z,9.90
2023-01-04T09:34:43.368Z,9.70
2023-01-04T09:38:10.882Z,10.80
2023-01-04T09:41:44.376Z,10.00
2023-01-04T09:45:24.503Z,10.60
2023-01-04T09:48:55.220Z,10.80
2023-01-04T09:52:26.528Z,10.90
2023-01-04T09:55:57.435Z,9.80
2023-01-04T09:59:31.052Z,10.20
2023-01-04T10:03:05.028Z,8.80
2023-01-04T10:06:38.284Z,11.40
2023-01-04T10:10:06.165Z,10.60
2023-01-04T10:13:50.151Z,10.50
2023-01-04T10:18:10.347Z,10.90
2023-01-04T10:21:34.283Z,11.30
2023-01-04T10:25:19.164Z,10.90
2023-01-04T10:29:06.809Z,11.50
2023-01-04T10:32:40.874Z,10.70
2023-01-04T10:36:24.567Z,11.10
2023-01-04T10:39:55.194Z,10.60
2023-01-04T10:44:09.874Z,10.80
2023-01-04T10:47:24.736Z,10.40
2023-01-04T10:51:03.554Z,9.70
2023-01-04T10:54:45.029Z,10.30
2023-01-04T10:58:21.014Z,9.90
2023-01-04T11:01:52.076Z,9.60
2023-01-04T11:05:25.572Z,9.20
2023-01-04T11:08:56.347Z,9.80
2023-01-04T11:12:24.838Z,8.60
2023-01-04T11:15:53.197Z,9.50
2023-01-04T11:19:21.132Z,11.90
2023-01-04T11:22:54.707Z,11.10
2023-01-04T11:26:33.037Z,10.40
2023-01-04T11:30:05.115Z,9.90
2023-01-04T11:33:51.640Z,10.40
2023-01-04T11:37:34.541Z,11.70
2023-01-04T11:41:05.634Z,11.10
2023-01-04T11:44:34.743Z,10.70
2023-01-04T11:48:10.855Z,10.80
2023-01-04T11:55:29.215Z,11.30
2023-01-04T11:59:20.645Z,12.10
2023-01-04T12:03:01.575Z,10.90
2023-01-04T12:06:36.429Z,10.20
2023-01-04T12:10:13.832Z,11.90
2023-01-04T12:13:43.936Z,11.30
2023-01-04T12:17:20.427Z,13.60
2023-01-04T12:20:47.847Z,12.40
2023-01-04T12:24:26.472Z,11.50
2023-01-04T12:27:55.537Z,11.50
2023-01-04T12:31:35.846Z,10.40
2023-01-04T12:35:02.723Z,10.50
2023-01-04T12:39:07.590Z,9.20
2023-01-04T12:42:34.814Z,10.90
2023-01-04T12:46:59.117Z,10.70
2023-01-04T12:50:29.183Z,10.10
2023-01-04T12:53:59.237Z,11.20
2023-01-04T12:57:37.284Z,10.50
2023-01-04T13:01:28.512Z,9.80
2023-01-04T13:05:25.752Z,9.60
2023-01-04T13:08:53.164Z,10.60
2023-01-04T13:12:37.413Z,9.40
2023-01-04T13:16:29.209Z,9.40
2023-01-04T13:19:57.112Z,11.00
2023-01-04T13:23:25.663Z,9.40
2023-01-04T13:26:53.904Z,8.70
2023-01-04T13:30:34.427Z,9.30
2023-01-04T13:34:01.317Z,9.40
2023-01-04T13:37:33.683Z,9.60
2023-01-04T13:41:00.583Z,9.40
2023-01-04T13:45:18.716Z,9.80
2023-01-04T13:48:40.974Z,10.20
2023-01-04T13:52:49.778Z,9.10
2023-01-04T13:56:22.476Z,11.40
2023-01-04T13:59:52.410Z,9.20
2023-01-04T14:03:34.087Z,9.30
2023-01-04T14:07:02.862Z,10.80
2023-01-04T14:10:30.021Z,11.50
2023-01-04T14:13:56.998Z,10.10
2023-01-04T14:17:29.715Z,9.40
2023-01-04T14:20:56.728Z,9.30
2023-01-04T14:25:10.529Z,12.80
2023-01-04T14:28:40.337Z,10.60
2023-01-04T14:32:13.931Z,9.30
2023-01-04T14:35:46.430Z,9.80
2023-01-04T14:39:28.981Z,9.20
2023-01-04T14:42:56.923Z,9.20
2023-01-04T14:46:24.881Z,9.00
2023-01-04T14:49:52.439Z,11.20
2023-01-04T14:53:21.354Z,9.90
2023-01-04T14:56:48.397Z,9.60
2023-01-04T15:00:19.763Z,11.40
2023-01-04T15:03:47.203Z,9.40
2023-01-04T15:07:35.300Z,9.50
2023-01-04T15:11:02.493Z,10.90
2023-01-04T15:14:29.576Z,10.70
2023-01-04T15:17:56.438Z,10.60
2023-01-04T15:21:23.376Z,10.40
2023-01-04T15:24:51.029Z,10.50
2023-01-04T15:28:21.662Z,11.40
2023-01-04T15:31:49.148Z,10.80
2023-01-04T15:35:17.684Z,11.80
2023-01-04T15:38:44.897Z,11.40
2023-01-04T15:42:34.436Z,11.40
2023-01-04T15:46:08.575Z,11.80
2023-01-04T15:49:36.024Z,12.10
2023-01-04T15:53:03.348Z,12.70
2023-01-04T15:56:30.436Z,12.50
2023-01-04T15:59:57.360Z,11.50
2023-01-04T16:03:24.389Z,11.30
2023-01-04T16:06:51.505Z,12.40
2023-01-04T16:10:19.056Z,13.00
2023-01-04T16:13:47.644Z,12.10
2023-01-04T16:17:14.543Z,11.00
2023-01-04T16:20:47.315Z,13.00
2023-01-04T16:24:44.877Z,13.30
2023-01-04T16:28:02.091Z,12.90
2023-01-04T16:31:33.478Z,13.00
2023-01-04T16:35:00.321Z,13.30
2023-01-04T16:38:28.016Z,12.60
2023-01-04T16:41:55.588Z,13.00
2023-01-04T16:45:25.787Z,13.90
2023-01-04T16:48:54.877Z,13.30
2023-01-04T16:52:21.847Z,12.20
2023-01-04T16:55:50.496Z,13.00
2023-01-04T16:59:20.088Z,12.80
2023-01-04T17:02:46.913Z,12.30
2023-01-04T17:06:19.846Z,11.20
2023-01-04T17:09:46.883Z,13.10
2023-01-04T17:13:13.820Z,13.40
2023-01-04T17:16:40.996Z,13.40
2023-01-04T17:20:10.167Z,12.90
2023-01-04T17:23:42.831Z,13.60
2023-01-04T17:30:51.585Z,14.40
2023-01-04T17:34:23.195Z,13.30
2023-01-04T17:37:50.897Z,14.00
2023-01-04T17:41:20.324Z,13.00
2023-01-04T17:44:49.513Z,14.20
2023-01-04T17:48:18.808Z,15.20
2023-01-04T17:51:46.661Z,14.60
2023-01-04T17:55:14.218Z,15.20
2023-01-04T17:58:43.453Z,15.60
2023-01-04T18:05:45.297Z,14.60
2023-01-04T18:09:22.263Z,15.30
2023-01-04T18:12:51.213Z,14.10
2023-01-04T18:16:25.343Z,14.90
2023-01-04T18:19:52.523Z,15.00
2023-01-04T18:23:25.751Z,13.80
2023-01-04T18:27:20.419Z,14.30
2023-01-04T18:30:40.659Z,13.90
2023-01-04T18:34:07.726Z,12.30
2023-01-04T18:37:35.539Z,14.80
2023-01-04T18:41:04.508Z,13.40
2023-01-04T18:44:35.908Z,14.40
2023-01-04T18:48:04.110Z,13.00
2023-01-04T18:51:31.049Z,14.60
2023-01-04T18:55:00.137Z,12.50
2023-01-04T18:58:26.948Z,14.40
2023-01-04T19:01:54.033Z,13.30
2023-01-04T19:05:21.187Z,13.40
2023-01-04T19:08:53.590Z,15.50
2023-01-04T19:12:23.311Z,13.20
2023-01-04T19:15:50.512Z,14.30
2023-01-04T19:19:17.622Z,12.30
2023-01-04T19:22:44.601Z,13.10
2023-01-04T19:26:14.206Z,13.20
2023-01-04T19:29:41.157Z,12.80
2023-01-04T19:33:09.217Z,12.80
2023-01-04T19:36:39.336Z,12.80
2023-01-04T19:40:07.856Z,12.70
2023-01-04T19:43:35.193Z,12.60
2023-01-04T19:47:02.509Z,12.50
2023-01-04T19:50:29.810Z,12.30
2023-01-04T19:54:01.512Z,11.40
2023-01-04T19:57:28.476Z,11.20
2023-01-04T20:00:55.590Z,12.10
2023-01-04T20:04:22.736Z,12.50
2023-01-04T20:07:50.898Z,11.80
2023-01-04T20:11:18.133Z,12.20
2023-01-04T20:14:46.977Z,11.90
2023-01-04T20:18:14.558Z,13.00
2023-01-04T20:21:41.857Z,21.00
2023-01-04T20:25:10.956Z,13.90
2023-01-04T20:28:38.656Z,14.30
2023-01-04T20:32:06.218Z,12.10
2023-01-04T20:35:33.116Z,12.90
2023-01-04T20:39:03.514Z,12.60
2023-01-04T20:42:48.412Z,11.60
2023-01-04T20:46:17.890Z,11.40
2023-01-04T20:49:45.053Z,11.80
2023-01-04T20:53:13.456Z,11.40
2023-01-04T20:56:40.964Z,12.80
2023-01-04T21:00:10.674Z,13.00
2023-01-04T21:03:38.854Z,15.30
2023-01-04T21:07:06.181Z,10.30
2023-01-04T21:10:33.137Z,10.00
2023-01-04T21:14:01.905Z,10.50
2023-01-04T21:17:28.757Z,9.50
2023-01-04T21:20:56.250Z,11.30
2023-01-04T21:24:23.310Z,9.70
2023-01-04T21:27:52.773Z,8.80
2023-01-04T21:31:23.814Z,11.30
2023-01-04T21:34:50.883Z,10.50
2023-01-04T21:38:17.712Z,7.40
2023-01-04T21:41:51.229Z,8.40
2023-01-04T21:45:19.569Z,6.50
2023-01-04T21:48:47.684Z,5.00
2023-01-04T21:52:18.835Z,3.10
2023-01-04T21:55:45.904Z,2.90
2023-01-04T21:59:12.911Z,2.40
2023-01-04T22:02:42.468Z,2.40
2023-01-04T22:09:36.823Z,2.90
2023-01-04T22:13:12.644Z,3.80
2023-01-04T22:16:40.085Z,3.80
2023-01-04T22:20:11.187Z,4.00
2023-01-04T22:23:38.782Z,4.00
2023-01-04T22:27:06.234Z,3.60
2023-01-04T22:30:33.600Z,4.10
2023-01-04T22:34:00.677Z,3.30
2023-01-04T22:37:27.708Z,3.20
2023-01-04T22:40:54.585Z,2.60
2023-01-04T22:44:21.641Z,1.80
2023-01-04T22:47:48.919Z,2.00
2023-01-04T22:51:18.285Z,2.10
2023-01-04T22:54:45.241Z,1.70
2023-01-04T22:58:12.243Z,1.90
2023-01-04T23:01:39.234Z,1.70
2023-01-04T23:05:07.161Z,1.70
2023-01-04T23:08:33.999Z,2.00
2023-01-04T23:12:01.091Z,2.10
2023-01-04T23:15:28.095Z,2.20
2023-01-04T23:18:55.007Z,2.10
2023-01-04T23:22:22.711Z,2.00
2023-01-04T23:25:49.554Z,2.20
2023-01-04T23:29:16.638Z,2.50
2023-01-04T23:32:44.234Z,2.60
2023-01-04T23:36:14.200Z,2.50
2023-01-04T23:39:41.634Z,2.20
2023-01-04T23:43:08.557Z,2.20
2023-01-04T23:46:35.628Z,2.30
2023-01-04T23:50:02.557Z,2.10
2023-01-04T23:53:29.986Z,2.60
2023-01-04T23:56:58.004Z,2.30
